Ignacio, CO

2:59 AM MDT on September 21, 2014 (GMT -0600)
Wolf Creek Pass | Change Station
CLOSE
Current Station
Airport
Location: Wolf Creek Pass,
Elevation: 11759 ft
Nearby Weather Stations
Active Advisory: Special Statement

Elev 11759 ft 37.45 °N, 106.80 °W | Updated -65 second ago

Thunderstorm
Thunderstorm
41 °F
Feels Like 35 °F
N
9
Wind Variable Wind from NE

Today
High -- | Low -- °F
--% Chance of Precip.
Yesterday
High -- | Low -- °F
Precip. -- in
6:57 AM 7:08 PM
Waning Crescent, 8% visible
Pressure 30.66 in
Visibility 10.0 miles
Clouds Scattered Clouds 3900 ft
Mostly Cloudy 4700 ft
Overcast 7500 ft
Windchill 35 °F
Dew Point 41 °F
Humidity 100%
Rainfall 0.00 in
Snow Depth Not available.
UV 0 out of 12
Pollen 6.30 out of 12
Air Quality Not available.
Flu Activity Not available.
METAR KCPW 210901Z AUTO 05008KT 10SM SCT039 BKN047 OVC075 05/05 A3066 RMK AO2 LTG DSNT E

More Conditions Fewer Conditions

Pressure 30.66 in
Visibility 10.0 miles
Clouds Scattered Clouds 3900 ft
Mostly Cloudy 4700 ft
Overcast 7500 ft
Windchill 35 °F
Dew Point 41 °F
Humidity 100%
Rainfall 0.00 in
Snow Depth Not available.
UV 0 out of 12
Pollen 6.30 out of 12
Air Quality Not available.
Flu Activity Not available.
METAR KCPW 210901Z AUTO 05008KT 10SM SCT039 BKN047 OVC075 05/05 A3066 RMK AO2 LTG DSNT E

More Conditions Fewer Conditions

10-Day Weather Forecast

Almanac

Astronomy

Sep. 21, 2014 Rise Set
Actual Time 6:57 AM MDT 7:08 PM MDT
Civil Twilight 6:31 AM MDT 7:34 PM MDT
Nautical Twilight 6:01 AM MDT 8:05 PM MDT
Astronomical Twilight 5:30 AM MDT 8:35 PM MDT
Moon 4:36 AM MDT 5:44 PM MDT
Length of Visible Light 13h 03m
Length of Day
12h 11m
Tomorrow will be 2m 22s shorter.
Waning Crescent, 8% of the Moon is Illuminated
Today
Waning Crescent
Sep 24
New
Oct 1
First Quarter
Oct 8
Full
Oct 15
Last Quarter

Today's Extremes

State Highs State Lows

Community

WunderPhotos

Upload Photos

1,755,100 photos uploaded!

Nearby

Snow Depth

Station Depth Elevation
Tower 0 in 10500 ft
Joe Wright 0 in 10120 ft
Grizzly Peak 0 in 11100 ft
Copper Mountain 0 in 10500 ft
Trapper Lake 0 in 9700 ft

Earthquake Activity

City Distance Mag. Time & Date
No recent earthquake activity has been reported nearby.
Minimum magnitude displayed is 2.5.

Coastal Water Temperatures

Place Temperature
No Stations Reporting

Nearby Weather Stations